sensor_id;sensor_type;location;lat;lon;timestamp;pressure;altitude;pressure_sealevel;temperature;humidity
20909;BME280;10614;53.198;6.570;2023-05-09T00:01:20;101777.88;;;14.19;100.00
20909;BME280;10614;53.198;6.570;2023-05-09T00:03:21;101833.78;;;14.57;100.00
20909;BME280;10614;53.198;6.570;2023-05-09T00:05:24;101799.84;;;14.43;100.00
20909;BME280;10614;53.198;6.570;2023-05-09T00:07:27;101815.22;;;14.57;100.00
20909;BME280;10614;53.198;6.570;2023-05-09T00:09:45;101816.69;;;14.64;100.00
20909;BME280;10614;53.198;6.570;2023-05-09T00:11:48;101798.53;;;14.53;100.00
20909;BME280;10614;53.198;6.570;2023-05-09T00:13:50;101811.38;;;14.64;100.00
20909;BME280;10614;53.198;6.570;2023-05-09T00:15:53;101794.09;;;14.55;100.00
20909;BME280;10614;53.198;6.570;2023-05-09T00:17:56;101810.44;;;14.65;100.00
20909;BME280;10614;53.198;6.570;2023-05-09T00:19:59;101808.59;;;14.67;100.00
20909;BME280;10614;53.198;6.570;2023-05-09T00:22:04;101790.38;;;14.60;100.00
20909;BME280;10614;53.198;6.570;2023-05-09T00:24:08;101803.50;;;14.63;100.00
20909;BME280;10614;53.198;6.570;2023-05-09T00:26:12;101805.03;;;14.68;100.00
20909;BME280;10614;53.198;6.570;2023-05-09T00:28:15;101810.34;;;14.68;100.00
20909;BME280;10614;53.198;6.570;2023-05-09T00:30:17;101789.38;;;14.62;100.00
20909;BME280;10614;53.198;6.570;2023-05-09T00:32:19;101791.03;;;14.65;100.00
20909;BME280;10614;53.198;6.570;2023-05-09T00:34:22;101790.91;;;14.68;100.00
20909;BME280;10614;53.198;6.570;2023-05-09T00:36:25;101759.63;;;14.55;100.00
20909;BME280;10614;53.198;6.570;2023-05-09T00:38:28;101775.53;;;14.55;100.00
20909;BME280;10614;53.198;6.570;2023-05-09T00:40:30;101777.00;;;14.63;100.00
20909;BME280;10614;53.198;6.570;2023-05-09T00:42:34;101756.16;;;14.53;100.00
20909;BME280;10614;53.198;6.570;2023-05-09T00:44:36;101762.38;;;14.54;100.00
20909;BME280;10614;53.198;6.570;2023-05-09T00:46:39;101754.50;;;14.51;100.00
20909;BME280;10614;53.198;6.570;2023-05-09T00:48:42;101761.91;;;14.65;100.00
20909;BME280;10614;53.198;6.570;2023-05-09T00:50:49;101754.09;;;14.62;100.00
20909;BME280;10614;53.198;6.570;2023-05-09T00:52:53;101756.59;;;14.65;100.00
20909;BME280;10614;53.198;6.570;2023-05-09T00:54:56;101748.00;;;14.60;100.00
20909;BME280;10614;53.198;6.570;2023-05-09T00:57:00;101719.44;;;14.44;100.00
20909;BME280;10614;53.198;6.570;2023-05-09T00:59:04;101738.53;;;14.54;100.00
20909;BME280;10614;53.198;6.570;2023-05-09T01:01:07;101733.25;;;14.52;100.00
20909;BME280;10614;53.198;6.570;2023-05-09T01:03:09;101721.09;;;14.47;100.00
20909;BME280;10614;53.198;6.570;2023-05-09T01:05:13;101725.56;;;14.46;100.00
20909;BME280;10614;53.198;6.570;2023-05-09T01:07:20;101743.75;;;14.55;100.00
20909;BME280;10614;53.198;6.570;2023-05-09T01:09:31;101724.03;;;14.41;100.00
20909;BME280;10614;53.198;6.570;2023-05-09T01:11:42;101734.25;;;14.50;100.00
20909;BME280;10614;53.198;6.570;2023-05-09T01:13:52;101733.44;;;14.48;100.00
20909;BME280;10614;53.198;6.570;2023-05-09T01:16:02;101719.25;;;14.49;100.00
20909;BME280;10614;53.198;6.570;2023-05-09T01:18:11;101697.78;;;14.34;100.00
20909;BME280;10614;53.198;6.570;2023-05-09T01:20:20;101690.91;;;14.30;100.00
20909;BME280;10614;53.198;6.570;2023-05-09T01:22:30;101729.75;;;14.52;100.00
20909;BME280;10614;53.198;6.570;2023-05-09T01:25:00;101687.28;;;14.33;100.00
20909;BME280;10614;53.198;6.570;2023-05-09T01:27:32;101699.44;;;14.37;100.00
20909;BME280;10614;53.198;6.570;2023-05-09T01:29:42;101718.34;;;14.50;100.00
20909;BME280;10614;53.198;6.570;2023-05-09T01:31:47;101701.19;;;14.38;100.00
20909;BME280;10614;53.198;6.570;2023-05-09T01:33:53;101706.41;;;14.40;100.00
20909;BME280;10614;53.198;6.570;2023-05-09T01:36:01;101681.47;;;14.23;100.00
20909;BME280;10614;53.198;6.570;2023-05-09T01:38:10;101699.59;;;14.34;100.00
20909;BME280;10614;53.198;6.570;2023-05-09T01:40:15;101682.94;;;14.30;100.00
20909;BME280;10614;53.198;6.570;2023-05-09T01:42:20;101683.63;;;14.35;100.00
20909;BME280;10614;53.198;6.570;2023-05-09T01:44:24;101667.94;;;14.31;100.00
20909;BME280;10614;53.198;6.570;2023-05-09T01:46:30;101674.50;;;14.43;100.00
20909;BME280;10614;53.198;6.570;2023-05-09T01:48:32;101683.16;;;14.46;100.00
20909;BME280;10614;53.198;6.570;2023-05-09T01:50:38;101673.16;;;14.32;100.00
20909;BME280;10614;53.198;6.570;2023-05-09T01:52:43;101693.03;;;14.43;100.00
20909;BME280;10614;53.198;6.570;2023-05-09T01:54:49;101654.03;;;14.26;100.00
20909;BME280;10614;53.198;6.570;2023-05-09T01:56:53;101687.66;;;14.44;100.00
20909;BME280;10614;53.198;6.570;2023-05-09T01:58:56;101659.19;;;14.29;100.00
20909;BME280;10614;53.198;6.570;2023-05-09T02:01:00;101669.31;;;14.40;100.00
20909;BME280;10614;53.198;6.570;2023-05-09T02:03:05;101684.09;;;14.45;100.00
20909;BME280;10614;53.198;6.570;2023-05-09T02:05:08;101662.66;;;14.31;100.00
20909;BME280;10614;53.198;6.570;2023-05-09T02:07:12;101676.50;;;14.38;100.00
20909;BME280;10614;53.198;6.570;2023-05-09T02:09:14;101644.88;;;14.12;100.00
20909;BME280;10614;53.198;6.570;2023-05-09T02:11:18;101646.59;;;14.13;100.00
20909;BME280;10614;53.198;6.570;2023-05-09T02:13:22;101694.69;;;14.45;100.00
20909;BME280;10614;53.198;6.570;2023-05-09T02:15:25;101656.75;;;14.24;100.00
20909;BME280;10614;53.198;6.570;2023-05-09T02:17:28;101656.59;;;14.27;100.00
20909;BME280;10614;53.198;6.570;2023-05-09T02:19:39;101671.31;;;14.34;100.00
20909;BME280;10614;53.198;6.570;2023-05-09T02:21:41;101680.59;;;14.45;100.00
20909;BME280;10614;53.198;6.570;2023-05-09T02:23:44;101666.75;;;14.38;100.00
20909;BME280;10614;53.198;6.570;2023-05-09T02:25:48;101642.72;;;14.22;100.00
20909;BME280;10614;53.198;6.570;2023-05-09T02:27:58;101661.56;;;14.35;100.00
20909;BME280;10614;53.198;6.570;2023-05-09T02:30:03;101659.72;;;14.37;100.00
20909;BME280;10614;53.198;6.570;2023-05-09T02:32:13;101664.03;;;14.40;100.00
20909;BME280;10614;53.198;6.570;2023-05-09T02:34:18;101658.81;;;14.38;100.00
20909;BME280;10614;53.198;6.570;2023-05-09T02:36:24;101638.72;;;14.32;100.00
20909;BME280;10614;53.198;6.570;2023-05-09T02:38:28;101636.16;;;14.31;100.00
20909;BME280;10614;53.198;6.570;2023-05-09T02:40:34;101641.25;;;14.35;100.00
20909;BME280;10614;53.198;6.570;2023-05-09T02:42:39;101629.41;;;14.24;100.00
20909;BME280;10614;53.198;6.570;2023-05-09T02:44:41;101616.38;;;14.19;100.00
20909;BME280;10614;53.198;6.570;2023-05-09T02:46:44;101657.63;;;14.45;100.00
20909;BME280;10614;53.198;6.570;2023-05-09T02:48:51;101637.88;;;14.32;100.00
20909;BME280;10614;53.198;6.570;2023-05-09T02:50:52;101649.91;;;14.39;100.00
20909;BME280;10614;53.198;6.570;2023-05-09T02:52:57;101669.88;;;14.48;100.00
20909;BME280;10614;53.198;6.570;2023-05-09T02:54:59;101664.41;;;14.51;100.00
20909;BME280;10614;53.198;6.570;2023-05-09T02:57:03;101603.94;;;14.21;100.00
20909;BME280;10614;53.198;6.570;2023-05-09T02:59:06;101648.72;;;14.46;100.00
20909;BME280;10614;53.198;6.570;2023-05-09T03:01:09;101626.94;;;14.40;100.00
20909;BME280;10614;53.198;6.570;2023-05-09T03:03:13;101633.91;;;14.42;100.00
20909;BME280;10614;53.198;6.570;2023-05-09T03:05:17;101636.34;;;14.47;100.00
20909;BME280;10614;53.198;6.570;2023-05-09T03:07:19;101625.28;;;14.37;100.00
20909;BME280;10614;53.198;6.570;2023-05-09T03:09:22;101634.88;;;14.40;100.00
20909;BME280;10614;53.198;6.570;2023-05-09T03:11:25;101634.81;;;14.41;100.00
20909;BME280;10614;53.198;6.570;2023-05-09T03:13:27;101644.22;;;14.48;100.00
20909;BME280;10614;53.198;6.570;2023-05-09T03:15:31;101630.47;;;14.40;100.00
20909;BME280;10614;53.198;6.570;2023-05-09T03:17:34;101629.47;;;14.43;100.00
20909;BME280;10614;53.198;6.570;2023-05-09T03:19:37;101617.34;;;14.37;100.00
20909;BME280;10614;53.198;6.570;2023-05-09T03:21:39;101584.59;;;14.19;100.00
20909;BME280;10614;53.198;6.570;2023-05-09T03:23:42;101613.13;;;14.33;100.00
20909;BME280;10614;53.198;6.570;2023-05-09T03:25:45;101617.34;;;14.37;100.00
20909;BME280;10614;53.198;6.570;2023-05-09T03:27:47;101613.97;;;14.33;100.00
20909;BME280;10614;53.198;6.570;2023-05-09T03:29:50;101614.59;;;14.40;100.00
20909;BME280;10614;53.198;6.570;2023-05-09T03:31:52;101606.53;;;14.42;100.00
20909;BME280;10614;53.198;6.570;2023-05-09T03:33:54;101605.53;;;14.44;100.00
20909;BME280;10614;53.198;6.570;2023-05-09T03:35:56;101612.50;;;14.47;100.00
20909;BME280;10614;53.198;6.570;2023-05-09T03:37:59;101593.50;;;14.37;100.00
20909;BME280;10614;53.198;6.570;2023-05-09T03:40:00;101606.75;;;14.37;100.00
20909;BME280;10614;53.198;6.570;2023-05-09T03:42:05;101605.69;;;14.41;100.00
20909;BME280;10614;53.198;6.570;2023-05-09T03:44:07;101595.31;;;14.36;100.00
20909;BME280;10614;53.198;6.570;2023-05-09T03:46:09;101569.56;;;14.20;100.00
20909;BME280;10614;53.198;6.570;2023-05-09T03:48:11;101540.28;;;14.02;100.00
20909;BME280;10614;53.198;6.570;2023-05-09T03:50:13;101596.44;;;14.31;100.00
20909;BME280;10614;53.198;6.570;2023-05-09T03:52:16;101571.94;;;14.26;100.00
20909;BME280;10614;53.198;6.570;2023-05-09T03:54:18;101556.31;;;14.20;100.00
20909;BME280;10614;53.198;6.570;2023-05-09T03:56:20;101599.03;;;14.51;100.00
20909;BME280;10614;53.198;6.570;2023-05-09T03:58:24;101594.69;;;14.50;100.00
20909;BME280;10614;53.198;6.570;2023-05-09T04:00:27;101595.69;;;14.48;100.00
20909;BME280;10614;53.198;6.570;2023-05-09T04:02:29;101573.09;;;14.39;100.00
20909;BME280;10614;53.198;6.570;2023-05-09T04:04:31;101553.19;;;14.30;100.00
20909;BME280;10614;53.198;6.570;2023-05-09T04:06:33;101577.22;;;14.46;100.00
20909;BME280;10614;53.198;6.570;2023-05-09T04:08:36;101572.00;;;14.45;100.00
20909;BME280;10614;53.198;6.570;2023-05-09T04:10:39;101583.09;;;14.53;100.00
20909;BME280;10614;53.198;6.570;2023-05-09T04:12:41;101563.47;;;14.38;100.00
20909;BME280;10614;53.198;6.570;2023-05-09T04:14:44;101580.34;;;14.56;100.00
20909;BME280;10614;53.198;6.570;2023-05-09T04:16:47;101575.97;;;14.55;100.00
20909;BME280;10614;53.198;6.570;2023-05-09T04:18:49;101571.84;;;14.48;100.00
20909;BME280;10614;53.198;6.570;2023-05-09T04:20:51;101587.44;;;14.55;100.00
20909;BME280;10614;53.198;6.570;2023-05-09T04:22:54;101580.59;;;14.50;100.00
20909;BME280;10614;53.198;6.570;2023-05-09T04:24:58;101569.19;;;14.48;100.00
20909;BME280;10614;53.198;6.570;2023-05-09T04:27:04;101557.97;;;14.43;100.00
20909;BME280;10614;53.198;6.570;2023-05-09T04:29:07;101570.84;;;14.50;100.00
20909;BME280;10614;53.198;6.570;2023-05-09T04:31:11;101547.47;;;14.40;100.00
20909;BME280;10614;53.198;6.570;2023-05-09T04:33:14;101559.41;;;14.50;100.00
20909;BME280;10614;53.198;6.570;2023-05-09T04:35:16;101538.56;;;14.42;100.00
20909;BME280;10614;53.198;6.570;2023-05-09T04:37:18;101564.44;;;14.56;100.00
20909;BME280;10614;53.198;6.570;2023-05-09T04:39:20;101560.94;;;14.55;100.00
20909;BME280;10614;53.198;6.570;2023-05-09T04:41:24;101566.88;;;14.61;100.00
20909;BME280;10614;53.198;6.570;2023-05-09T04:43:28;101529.72;;;14.42;100.00
20909;BME280;10614;53.198;6.570;2023-05-09T04:45:30;101557.22;;;14.60;100.00
20909;BME280;10614;53.198;6.570;2023-05-09T04:47:34;101548.41;;;14.59;100.00
20909;BME280;10614;53.198;6.570;2023-05-09T04:49:37;101530.38;;;14.47;100.00
20909;BME280;10614;53.198;6.570;2023-05-09T04:51:39;101539.53;;;14.60;100.00
20909;BME280;10614;53.198;6.570;2023-05-09T04:53:44;101546.22;;;14.69;100.00
20909;BME280;10614;53.198;6.570;2023-05-09T04:55:46;101522.84;;;14.58;100.00
20909;BME280;10614;53.198;6.570;2023-05-09T04:57:48;101542.50;;;14.73;100.00
20909;BME280;10614;53.198;6.570;2023-05-09T04:59:51;101549.94;;;14.84;100.00
20909;BME280;10614;53.198;6.570;2023-05-09T05:01:54;101535.97;;;14.80;100.00
20909;BME280;10614;53.198;6.570;2023-05-09T05:03:57;101552.25;;;14.91;100.00
20909;BME280;10614;53.198;6.570;2023-05-09T05:05:59;101539.25;;;14.85;100.00
20909;BME280;10614;53.198;6.570;2023-05-09T05:08:04;101543.63;;;14.86;100.00
20909;BME280;10614;53.198;6.570;2023-05-09T05:10:09;101558.09;;;14.98;100.00
20909;BME280;10614;53.198;6.570;2023-05-09T05:12:11;101558.03;;;14.99;100.00
20909;BME280;10614;53.198;6.570;2023-05-09T05:14:14;101531.09;;;14.90;100.00
20909;BME280;10614;53.198;6.570;2023-05-09T05:16:20;101545.78;;;14.97;100.00
20909;BME280;10614;53.198;6.570;2023-05-09T05:18:22;101548.22;;;15.02;100.00
20909;BME280;10614;53.198;6.570;2023-05-09T05:20:39;101545.50;;;15.03;100.00
20909;BME280;10614;53.198;6.570;2023-05-09T05:22:42;101535.13;;;14.98;100.00
20909;BME280;10614;53.198;6.570;2023-05-09T05:24:48;101510.16;;;14.84;100.00
20909;BME280;10614;53.198;6.570;2023-05-09T05:26:54;101545.34;;;15.06;100.00
20909;BME280;10614;53.198;6.570;2023-05-09T05:28:57;101538.19;;;15.08;100.00
20909;BME280;10614;53.198;6.570;2023-05-09T05:31:03;101531.94;;;15.09;100.00
20909;BME280;10614;53.198;6.570;2023-05-09T05:33:05;101512.97;;;14.99;100.00
20909;BME280;10614;53.198;6.570;2023-05-09T05:35:08;101536.16;;;15.13;100.00
20909;BME280;10614;53.198;6.570;2023-05-09T05:37:12;101510.25;;;15.01;100.00
20909;BME280;10614;53.198;6.570;2023-05-09T05:39:15;101524.78;;;15.11;100.00
20909;BME280;10614;53.198;6.570;2023-05-09T05:41:20;101532.66;;;15.13;100.00
20909;BME280;10614;53.198;6.570;2023-05-09T05:43:28;101520.84;;;15.01;100.00
20909;BME280;10614;53.198;6.570;2023-05-09T05:45:36;101512.22;;;14.96;100.00
20909;BME280;10614;53.198;6.570;2023-05-09T05:47:43;101469.00;;;14.76;100.00
20909;BME280;10614;53.198;6.570;2023-05-09T05:49:49;101526.41;;;15.14;100.00
20909;BME280;10614;53.198;6.570;2023-05-09T05:51:54;101495.25;;;15.00;100.00
20909;BME280;10614;53.198;6.570;2023-05-09T05:54:05;101495.13;;;15.03;100.00
20909;BME280;10614;53.198;6.570;2023-05-09T05:56:25;101480.41;;;14.96;100.00
20909;BME280;10614;53.198;6.570;2023-05-09T05:58:52;101496.53;;;15.10;100.00
20909;BME280;10614;53.198;6.570;2023-05-09T06:01:15;101502.03;;;15.25;100.00
20909;BME280;10614;53.198;6.570;2023-05-09T06:04:07;101494.53;;;15.33;100.00
20909;BME280;10614;53.198;6.570;2023-05-09T06:06:34;101469.34;;;15.24;100.00
20909;BME280;10614;53.198;6.570;2023-05-09T07:35:24;101369.16;;;15.97;100.00
20909;BME280;10614;53.198;6.570;2023-05-09T07:37:30;101367.47;;;16.12;100.00
20909;BME280;10614;53.198;6.570;2023-05-09T14:23:17;100978.47;;;17.44;100.00
20909;BME280;10614;53.198;6.570;2023-05-09T14:25:23;101011.97;;;17.61;100.00
20909;BME280;10614;53.198;6.570;2023-05-09T14:27:59;101005.50;;;17.38;100.00
20909;BME280;10614;53.198;6.570;2023-05-09T14:32:37;101011.59;;;17.40;100.00
20909;BME280;10614;53.198;6.570;2023-05-09T14:35:21;101001.09;;;17.24;100.00
20909;BME280;10614;53.198;6.570;2023-05-09T14:39:59;100978.09;;;16.96;100.00
20909;BME280;10614;53.198;6.570;2023-05-09T14:42:27;100962.44;;;16.91;100.00
20909;BME280;10614;53.198;6.570;2023-05-09T14:44:54;100934.09;;;16.63;100.00
20909;BME280;10614;53.198;6.570;2023-05-09T14:47:19;101003.53;;;16.85;100.00
20909;BME280;10614;53.198;6.570;2023-05-09T14:50:01;100996.25;;;16.75;100.00
20909;BME280;10614;53.198;6.570;2023-05-09T14:52:22;100978.56;;;16.74;100.00
20909;BME280;10614;53.198;6.570;2023-05-09T14:54:46;100996.88;;;16.78;100.00
20909;BME280;10614;53.198;6.570;2023-05-09T15:13:40;100961.94;;;16.99;100.00
20909;BME280;10614;53.198;6.570;2023-05-09T15:24:34;100964.09;;;17.06;100.00
20909;BME280;10614;53.198;6.570;2023-05-09T15:31:40;100966.88;;;16.76;100.00
20909;BME280;10614;53.198;6.570;2023-05-09T15:34:23;100960.66;;;16.63;100.00
20909;BME280;10614;53.198;6.570;2023-05-09T15:38:59;100941.63;;;16.42;100.00
20909;BME280;10614;53.198;6.570;2023-05-09T15:41:41;100946.09;;;16.41;100.00
20909;BME280;10614;53.198;6.570;2023-05-09T15:59:26;100945.66;;;16.62;100.00
20909;BME280;10614;53.198;6.570;2023-05-09T16:01:53;100939.03;;;16.55;100.00
20909;BME280;10614;53.198;6.570;2023-05-09T16:06:35;100931.63;;;16.45;100.00
20909;BME280;10614;53.198;6.570;2023-05-09T16:09:15;100945.59;;;16.49;100.00
20909;BME280;10614;53.198;6.570;2023-05-09T16:11:59;100912.00;;;16.34;100.00
20909;BME280;10614;53.198;6.570;2023-05-09T16:14:23;100942.94;;;16.49;100.00
20909;BME280;10614;53.198;6.570;2023-05-09T16:35:43;100909.34;;;16.34;100.00
20909;BME280;10614;53.198;6.570;2023-05-09T16:38:22;100855.22;;;15.93;100.00
20909;BME280;10614;53.198;6.570;2023-05-09T16:40:43;100900.63;;;16.17;100.00
20909;BME280;10614;53.198;6.570;2023-05-09T16:43:18;100916.97;;;16.25;100.00
20909;BME280;10614;53.198;6.570;2023-05-09T16:46:07;100872.56;;;15.99;100.00
20909;BME280;10614;53.198;6.570;2023-05-09T16:48:24;100902.25;;;16.20;100.00
20909;BME280;10614;53.198;6.570;2023-05-09T16:50:38;100903.00;;;16.22;100.00
20909;BME280;10614;53.198;6.570;2023-05-09T16:52:45;100844.81;;;15.90;100.00
20909;BME280;10614;53.198;6.570;2023-05-09T16:54:50;100894.47;;;16.17;100.00
20909;BME280;10614;53.198;6.570;2023-05-09T16:56:54;100894.84;;;16.11;100.00
20909;BME280;10614;53.198;6.570;2023-05-09T16:58:57;100883.59;;;15.93;100.00
20909;BME280;10614;53.198;6.570;2023-05-09T17:01:12;100884.16;;;15.98;100.00
20909;BME280;10614;53.198;6.570;2023-05-09T17:03:34;100852.88;;;15.74;100.00
20909;BME280;10614;53.198;6.570;2023-05-09T18:01:33;100803.59;;;15.26;100.00
20909;BME280;10614;53.198;6.570;2023-05-09T18:03:35;100830.06;;;15.41;100.00
20909;BME280;10614;53.198;6.570;2023-05-09T18:05:38;100850.25;;;15.58;100.00
20909;BME280;10614;53.198;6.570;2023-05-09T18:07:41;100839.28;;;15.50;100.00
20909;BME280;10614;53.198;6.570;2023-05-09T18:09:43;100849.69;;;15.53;100.00
20909;BME280;10614;53.198;6.570;2023-05-09T18:11:45;100848.00;;;15.52;100.00
20909;BME280;10614;53.198;6.570;2023-05-09T18:13:50;100848.72;;;15.54;100.00
20909;BME280;10614;53.198;6.570;2023-05-09T18:16:08;100850.66;;;15.52;100.00
20909;BME280;10614;53.198;6.570;2023-05-09T18:18:27;100826.66;;;15.39;100.00
20909;BME280;10614;53.198;6.570;2023-05-09T18:20:46;100847.31;;;15.49;100.00
20909;BME280;10614;53.198;6.570;2023-05-09T18:22:57;100848.34;;;15.46;100.00
20909;BME280;10614;53.198;6.570;2023-05-09T18:25:00;100799.91;;;15.14;100.00
20909;BME280;10614;53.198;6.570;2023-05-09T18:27:13;100804.34;;;15.13;100.00
20909;BME280;10614;53.198;6.570;2023-05-09T18:29:15;100812.31;;;15.13;100.00
20909;BME280;10614;53.198;6.570;2023-05-09T18:31:23;100817.34;;;15.18;100.00
20909;BME280;10614;53.198;6.570;2023-05-09T18:43:30;100838.81;;;15.13;100.00
20909;BME280;10614;53.198;6.570;2023-05-09T18:45:46;100789.41;;;14.82;100.00
20909;BME280;10614;53.198;6.570;2023-05-09T18:48:03;100812.53;;;14.94;100.00
20909;BME280;10614;53.198;6.570;2023-05-09T18:52:29;100781.22;;;14.71;100.00
20909;BME280;10614;53.198;6.570;2023-05-09T18:54:44;100813.66;;;14.90;100.00
20909;BME280;10614;53.198;6.570;2023-05-09T18:57:06;100811.47;;;14.83;100.00
20909;BME280;10614;53.198;6.570;2023-05-09T18:59:12;100813.88;;;14.71;100.00
20909;BME280;10614;53.198;6.570;2023-05-09T19:01:16;100832.47;;;14.86;100.00
20909;BME280;10614;53.198;6.570;2023-05-09T19:03:23;100806.47;;;14.62;100.00
20909;BME280;10614;53.198;6.570;2023-05-09T19:05:38;100851.22;;;14.83;100.00
20909;BME280;10614;53.198;6.570;2023-05-09T19:07:54;100837.78;;;14.70;100.00
20909;BME280;10614;53.198;6.570;2023-05-09T20:10:23;100847.41;;;14.56;100.00
20909;BME280;10614;53.198;6.570;2023-05-09T20:12:25;100827.03;;;14.41;100.00
20909;BME280;10614;53.198;6.570;2023-05-09T20:14:28;100802.88;;;14.31;100.00
20909;BME280;10614;53.198;6.570;2023-05-09T20:16:30;100840.53;;;14.52;100.00
20909;BME280;10614;53.198;6.570;2023-05-09T20:18:33;100827.81;;;14.43;100.00
20909;BME280;10614;53.198;6.570;2023-05-09T20:20:36;100834.38;;;14.52;100.00
20909;BME280;10614;53.198;6.570;2023-05-09T20:22:44;100782.22;;;14.22;100.00
20909;BME280;10614;53.198;6.570;2023-05-09T20:24:48;100802.94;;;14.30;100.00
20909;BME280;10614;53.198;6.570;2023-05-09T20:26:53;100835.31;;;14.51;100.00
20909;BME280;10614;53.198;6.570;2023-05-09T20:28:56;100789.13;;;14.25;100.00
20909;BME280;10614;53.198;6.570;2023-05-09T20:31:00;100835.41;;;14.49;100.00
20909;BME280;10614;53.198;6.570;2023-05-09T20:33:04;100801.25;;;14.29;100.00
20909;BME280;10614;53.198;6.570;2023-05-09T20:35:09;100834.66;;;14.47;100.00
20909;BME280;10614;53.198;6.570;2023-05-09T20:37:15;100824.56;;;14.38;100.00
20909;BME280;10614;53.198;6.570;2023-05-09T20:39:19;100817.81;;;14.32;100.00
20909;BME280;10614;53.198;6.570;2023-05-09T20:41:24;100828.84;;;14.41;100.00
20909;BME280;10614;53.198;6.570;2023-05-09T20:43:32;100820.31;;;14.35;100.00
20909;BME280;10614;53.198;6.570;2023-05-09T20:45:37;100798.78;;;14.26;100.00
20909;BME280;10614;53.198;6.570;2023-05-09T20:47:40;100810.56;;;14.36;100.00
20909;BME280;10614;53.198;6.570;2023-05-09T21:00:55;100804.66;;;14.15;100.00
20909;BME280;10614;53.198;6.570;2023-05-09T21:02:59;100831.22;;;14.29;100.00
20909;BME280;10614;53.198;6.570;2023-05-09T21:05:02;100799.56;;;14.12;100.00
20909;BME280;10614;53.198;6.570;2023-05-09T21:07:08;100812.09;;;14.24;100.00
20909;BME280;10614;53.198;6.570;2023-05-09T21:09:12;100770.75;;;13.90;100.00
20909;BME280;10614;53.198;6.570;2023-05-09T21:28:37;100764.63;;;13.89;100.00
20909;BME280;10614;53.198;6.570;2023-05-09T21:30:39;100815.06;;;14.18;100.00
20909;BME280;10614;53.198;6.570;2023-05-09T21:32:46;100807.56;;;14.10;100.00
20909;BME280;10614;53.198;6.570;2023-05-09T21:34:48;100773.06;;;13.96;100.00
20909;BME280;10614;53.198;6.570;2023-05-09T21:36:51;100747.56;;;13.79;100.00
20909;BME280;10614;53.198;6.570;2023-05-09T21:39:01;100773.75;;;14.00;100.00
20909;BME280;10614;53.198;6.570;2023-05-09T21:41:09;100735.34;;;13.77;100.00
20909;BME280;10614;53.198;6.570;2023-05-09T21:43:12;100811.84;;;14.13;100.00
20909;BME280;10614;53.198;6.570;2023-05-09T21:45:17;100777.53;;;13.96;100.00
20909;BME280;10614;53.198;6.570;2023-05-09T21:47:33;100773.16;;;13.94;100.00
20909;BME280;10614;53.198;6.570;2023-05-09T21:49:37;100777.53;;;13.96;100.00
20909;BME280;10614;53.198;6.570;2023-05-09T21:51:42;100788.09;;;13.96;100.00
20909;BME280;10614;53.198;6.570;2023-05-09T21:53:45;100761.19;;;13.87;100.00
20909;BME280;10614;53.198;6.570;2023-05-09T21:55:50;100798.00;;;14.08;100.00
20909;BME280;10614;53.198;6.570;2023-05-09T21:57:56;100756.84;;;13.86;100.00
20909;BME280;10614;53.198;6.570;2023-05-09T22:00:13;100794.59;;;14.06;100.00
20909;BME280;10614;53.198;6.570;2023-05-09T22:02:32;100757.78;;;13.85;100.00
20909;BME280;10614;53.198;6.570;2023-05-09T22:04:44;100783.31;;;14.02;100.00
20909;BME280;10614;53.198;6.570;2023-05-09T22:06:48;100788.34;;;14.07;100.00
20909;BME280;10614;53.198;6.570;2023-05-09T22:09:04;100769.47;;;13.97;100.00
20909;BME280;10614;53.198;6.570;2023-05-09T22:11:19;100719.97;;;13.67;100.00
20909;BME280;10614;53.198;6.570;2023-05-09T22:13:36;100761.78;;;13.92;100.00
20909;BME280;10614;53.198;6.570;2023-05-09T22:15:47;100746.28;;;13.86;100.00
20909;BME280;10614;53.198;6.570;2023-05-09T22:18:06;100758.22;;;13.93;100.00
20909;BME280;10614;53.198;6.570;2023-05-09T22:20:11;100749.00;;;13.85;100.00
20909;BME280;10614;53.198;6.570;2023-05-09T22:22:15;100744.41;;;13.88;100.00
20909;BME280;10614;53.198;6.570;2023-05-09T22:24:26;100774.13;;;14.09;100.00
20909;BME280;10614;53.198;6.570;2023-05-09T22:26:30;100759.75;;;13.98;100.00
20909;BME280;10614;53.198;6.570;2023-05-09T22:28:46;100737.38;;;13.87;100.00
20909;BME280;10614;53.198;6.570;2023-05-09T22:30:56;100734.81;;;13.86;100.00
20909;BME280;10614;53.198;6.570;2023-05-09T22:33:07;100746.78;;;13.93;100.00
20909;BME280;10614;53.198;6.570;2023-05-09T22:35:12;100752.81;;;13.95;100.00
20909;BME280;10614;53.198;6.570;2023-05-09T22:37:29;100742.59;;;13.89;100.00
20909;BME280;10614;53.198;6.570;2023-05-09T22:39:35;100723.38;;;13.85;100.00
20909;BME280;10614;53.198;6.570;2023-05-09T22:41:39;100767.16;;;14.07;100.00
20909;BME280;10614;53.198;6.570;2023-05-09T22:43:46;100771.63;;;14.06;100.00
20909;BME280;10614;53.198;6.570;2023-05-09T22:46:00;100727.13;;;13.81;100.00
20909;BME280;10614;53.198;6.570;2023-05-09T22:48:13;100746.03;;;13.91;100.00
20909;BME280;10614;53.198;6.570;2023-05-09T22:50:21;100753.25;;;13.87;100.00
20909;BME280;10614;53.198;6.570;2023-05-09T22:52:28;100713.81;;;13.67;100.00
20909;BME280;10614;53.198;6.570;2023-05-09T22:54:33;100759.66;;;13.99;100.00
20909;BME280;10614;53.198;6.570;2023-05-09T22:56:39;100747.78;;;13.90;100.00
20909;BME280;10614;53.198;6.570;2023-05-09T22:58:48;100754.97;;;13.88;100.00
20909;BME280;10614;53.198;6.570;2023-05-09T23:00:58;100769.66;;;13.94;100.00
20909;BME280;10614;53.198;6.570;2023-05-09T23:03:16;100744.03;;;13.79;100.00